Time;durP1;ratioP1;P1;durP2;ratioP2;P2;SDS_P1;SDS_P2;PMS_P1;PMS_P2;Temp;Humidity;BMP_temperature;BMP_pressure;BME280_temperature;BME280_humidity;BME280_pressure;Samples;Min_cycle;Max_cycle;Signal;HPM_P1;HPM_P2
2022/06/06 00:02:09;;;;;;;2.07;1.90;;;16.50;99.90;;;;;;5064082;28;20221;-50
2022/06/06 00:04:37;;;;;;;1.73;1.63;;;16.50;99.90;;;;;;5073493;28;20240;-50
2022/06/06 00:07:04;;;;;;;3.20;3.00;;;16.50;99.90;;;;;;5072356;28;20669;-51
2022/06/06 00:09:31;;;;;;;2.00;1.33;;;16.50;99.90;;;;;;5073271;28;20221;-51
2022/06/06 00:12:00;;;;;;;1.80;0.90;;;16.60;99.90;;;;;;5071936;28;20232;-50
2022/06/06 00:14:28;;;;;;;2.30;1.50;;;16.60;99.90;;;;;;5073299;28;20295;-50
2022/06/06 00:16:55;;;;;;;1.97;1.00;;;16.50;99.90;;;;;;5073395;28;20656;-50
2022/06/06 00:19:24;;;;;;;1.17;1.17;;;16.50;99.90;;;;;;5071096;28;20249;-49
2022/06/06 00:21:51;;;;;;;1.77;1.20;;;16.50;99.90;;;;;;5065724;28;20217;-50
2022/06/06 00:24:19;;;;;;;1.30;1.30;;;16.50;99.90;;;;;;5070220;28;20721;-50
2022/06/06 00:26:46;;;;;;;2.10;1.90;;;16.50;99.90;;;;;;5072680;28;20924;-50
2022/06/06 00:29:16;;;;;;;2.10;1.47;;;16.40;99.90;;;;;;5072148;28;20189;-50
2022/06/06 00:37:15;;;;;;;1.97;1.30;;;16.30;99.90;;;;;;5067786;28;20216;-50
2022/06/06 00:39:43;;;;;;;3.53;1.33;;;16.30;99.90;;;;;;5067071;28;20213;-49
2022/06/06 00:42:18;;;;;;;1.37;0.90;;;16.30;99.90;;;;;;5067831;28;20249;-50
2022/06/06 00:44:45;;;;;;;2.30;2.17;;;16.20;99.90;;;;;;5070493;28;20270;-50
2022/06/06 00:47:21;;;;;;;8.27;1.93;;;16.20;99.90;;;;;;5091040;22;20275;-45
2022/06/06 00:49:53;;;;;;;9.30;2.07;;;16.30;99.90;;;;;;5046173;28;20229;-45
2022/06/06 00:52:24;;;;;;;1.97;1.73;;;16.30;99.90;;;;;;5048360;28;20292;-45
2022/06/06 00:54:53;;;;;;;2.83;1.83;;;16.30;99.90;;;;;;5052513;28;20710;-44
2022/06/06 00:57:23;;;;;;;2.97;1.50;;;16.30;99.90;;;;;;5047293;28;20264;-44
2022/06/06 00:59:50;;;;;;;2.77;1.70;;;16.30;99.90;;;;;;5052606;28;20226;-44
2022/06/06 01:02:18;;;;;;;1.60;1.60;;;16.20;99.90;;;;;;5045417;28;20198;-44
2022/06/06 01:04:46;;;;;;;1.77;1.77;;;16.20;99.90;;;;;;5051906;28;20247;-44
2022/06/06 01:07:15;;;;;;;1.57;1.47;;;16.20;99.90;;;;;;5052474;28;20222;-44
2022/06/06 01:09:44;;;;;;;3.47;1.80;;;16.20;99.90;;;;;;5052264;28;20256;-44
2022/06/06 01:12:14;;;;;;;1.90;1.37;;;16.10;99.90;;;;;;5046711;28;20587;-44
2022/06/06 01:14:46;;;;;;;1.50;1.40;;;16.10;99.90;;;;;;5044231;28;20198;-44
2022/06/06 01:17:20;;;;;;;2.40;1.47;;;16.10;99.90;;;;;;5032427;28;20720;-44
2022/06/06 01:20:02;;;;;;;3.00;1.93;;;16.00;99.90;;;;;;5037378;28;20217;-44
2022/06/06 01:22:57;;;;;;;4.47;1.77;;;16.00;99.90;;;;;;5048431;28;20202;-44
2022/06/06 01:25:58;;;;;;;3.80;2.17;;;15.90;99.90;;;;;;5043928;28;20235;-44
2022/06/06 01:28:44;;;;;;;5.40;2.10;;;15.90;99.90;;;;;;5049454;28;20279;-44
2022/06/06 01:31:16;;;;;;;2.67;1.57;;;15.90;99.90;;;;;;5032240;28;20212;-44
2022/06/06 01:33:52;;;;;;;1.83;1.73;;;15.90;99.90;;;;;;5032448;28;20202;-44
2022/06/06 01:36:19;;;;;;;1.97;1.87;;;15.90;99.90;;;;;;5038657;28;20197;-45
2022/06/06 01:38:47;;;;;;;2.10;1.90;;;15.80;99.90;;;;;;5050965;28;20218;-44
2022/06/06 01:41:22;;;;;;;3.03;1.93;;;15.80;99.90;;;;;;5050471;28;20773;-44
2022/06/06 01:43:58;;;;;;;2.13;2.03;;;15.80;99.90;;;;;;5043207;28;20209;-44
2022/06/06 01:46:28;;;;;;;1.67;1.50;;;15.90;99.90;;;;;;5052074;28;20197;-44
2022/06/06 01:48:56;;;;;;;1.90;1.80;;;15.90;99.90;;;;;;5046127;28;20217;-44
2022/06/06 01:51:28;;;;;;;2.00;1.67;;;15.90;99.90;;;;;;5043168;28;20202;-44
2022/06/06 01:53:56;;;;;;;1.60;1.43;;;15.90;99.90;;;;;;5051960;28;20665;-45
2022/06/06 01:56:27;;;;;;;1.60;1.50;;;15.80;99.90;;;;;;5047727;28;20686;-44
2022/06/06 01:58:55;;;;;;;2.17;1.97;;;15.80;99.90;;;;;;5039641;28;20278;-45
2022/06/06 02:01:22;;;;;;;3.83;1.80;;;15.70;99.90;;;;;;5048497;28;20641;-45
2022/06/06 02:03:49;;;;;;;2.50;2.10;;;15.60;99.90;;;;;;5051489;28;20230;-45
2022/06/06 02:06:16;;;;;;;2.43;1.20;;;15.50;99.90;;;;;;5051880;28;20201;-44
2022/06/06 02:08:43;;;;;;;1.60;1.50;;;15.50;99.90;;;;;;5051539;28;20275;-45
2022/06/06 02:11:11;;;;;;;1.97;1.87;;;15.50;99.90;;;;;;5042290;28;20248;-44
2022/06/06 02:13:39;;;;;;;3.60;1.60;;;15.50;99.90;;;;;;5051317;28;20687;-45
2022/06/06 02:16:08;;;;;;;2.13;1.90;;;15.40;99.90;;;;;;5051642;28;20629;-44
2022/06/06 02:18:35;;;;;;;1.50;1.50;;;15.40;99.90;;;;;;5051454;28;20229;-45
2022/06/06 02:21:02;;;;;;;2.50;1.63;;;15.30;99.90;;;;;;5042268;28;20773;-44
2022/06/06 02:23:29;;;;;;;1.83;1.73;;;15.30;99.90;;;;;;5050574;28;20866;-45
2022/06/06 02:25:56;;;;;;;2.57;1.90;;;15.30;99.90;;;;;;5043160;28;20201;-44
2022/06/06 02:28:24;;;;;;;2.33;1.60;;;15.30;99.90;;;;;;5051456;28;20218;-44
2022/06/06 02:30:51;;;;;;;5.07;2.27;;;15.30;99.90;;;;;;5042263;28;20694;-45
2022/06/06 02:33:19;;;;;;;1.93;1.83;;;15.30;99.90;;;;;;5051089;28;20227;-44
2022/06/06 02:35:47;;;;;;;2.83;2.13;;;15.30;99.90;;;;;;5050021;28;20660;-45
2022/06/06 02:38:14;;;;;;;3.03;2.07;;;15.30;99.90;;;;;;5043714;28;20289;-45
2022/06/06 02:40:44;;;;;;;1.70;1.70;;;15.30;99.90;;;;;;5050325;28;20249;-44
2022/06/06 02:43:11;;;;;;;2.13;1.77;;;15.30;99.90;;;;;;5043003;28;20252;-45
2022/06/06 02:45:39;;;;;;;1.87;1.70;;;15.20;99.90;;;;;;5051272;28;20209;-44
2022/06/06 02:48:08;;;;;;;2.43;2.27;;;15.30;99.90;;;;;;5047780;28;20703;-44
2022/06/06 02:50:37;;;;;;;2.60;1.93;;;15.30;99.90;;;;;;5045735;28;20194;-45
2022/06/06 02:53:05;;;;;;;3.63;2.03;;;15.20;99.90;;;;;;5050806;28;20220;-44
2022/06/06 02:55:33;;;;;;;2.50;2.30;;;15.20;99.90;;;;;;5050588;28;20284;-45
2022/06/06 02:58:01;;;;;;;3.07;2.00;;;15.20;99.90;;;;;;5042585;28;20300;-45
2022/06/06 03:00:30;;;;;;;4.00;1.80;;;15.20;99.90;;;;;;5045928;28;20225;-44
2022/06/06 03:02:57;;;;;;;1.97;1.40;;;15.20;99.90;;;;;;5050831;28;20232;-44
2022/06/06 03:05:35;;;;;;;3.07;1.83;;;15.10;99.90;;;;;;5051072;28;20247;-44
2022/06/06 03:08:16;;;;;;;2.50;1.70;;;15.20;99.90;;;;;;5049256;28;20244;-45
2022/06/06 03:10:59;;;;;;;1.97;1.47;;;15.20;99.90;;;;;;5044502;28;20225;-44
2022/06/06 03:13:43;;;;;;;2.03;1.50;;;15.20;99.90;;;;;;5044875;28;20208;-45
2022/06/06 03:22:19;;;;;;;1.83;1.53;;;15.20;99.90;;;;;;5041629;28;20633;-44
2022/06/06 03:24:59;;;;;;;1.63;1.53;;;15.20;99.90;;;;;;5048399;28;20197;-44
2022/06/06 03:27:40;;;;;;;1.73;1.63;;;15.20;99.90;;;;;;5052375;28;20733;-44
2022/06/06 03:30:15;;;;;;;2.33;1.43;;;15.20;99.90;;;;;;5052556;28;20186;-44
2022/06/06 03:33:06;;;;;;;3.67;1.83;;;15.20;99.90;;;;;;5051307;28;20213;-44
2022/06/06 03:35:40;;;;;;;1.73;0.97;;;15.20;99.90;;;;;;5048619;28;20252;-44
2022/06/06 03:38:16;;;;;;;1.80;1.70;;;15.20;99.90;;;;;;5052944;28;20217;-45
2022/06/06 03:40:59;;;;;;;1.90;1.80;;;15.20;99.90;;;;;;5049328;28;20221;-44
2022/06/06 03:43:34;;;;;;;1.70;1.60;;;15.20;99.90;;;;;;5051004;28;20198;-45
2022/06/06 03:46:13;;;;;;;2.10;1.30;;;15.20;99.90;;;;;;5053255;28;20209;-45
2022/06/06 03:48:50;;;;;;;1.57;1.57;;;15.20;99.90;;;;;;5053093;28;20229;-44
2022/06/06 03:51:28;;;;;;;1.53;1.43;;;15.20;99.90;;;;;;5052929;28;20197;-44
2022/06/06 03:54:01;;;;;;;3.53;1.50;;;15.20;99.90;;;;;;5049121;28;20236;-44
2022/06/06 03:56:41;;;;;;;1.43;1.10;;;15.20;99.90;;;;;;5050898;28;20206;-44
2022/06/06 03:59:10;;;;;;;2.30;1.40;;;15.30;99.90;;;;;;5045033;28;20198;-44
2022/06/06 04:01:40;;;;;;;1.30;1.30;;;15.30;99.90;;;;;;5052754;28;20854;-44
2022/06/06 04:04:08;;;;;;;1.43;1.20;;;15.30;99.90;;;;;;5053169;28;20280;-45
2022/06/06 04:06:36;;;;;;;1.40;1.10;;;15.30;99.90;;;;;;5053240;28;20210;-45
2022/06/06 04:09:04;;;;;;;2.27;1.30;;;15.30;99.90;;;;;;5051734;28;20568;-44
2022/06/06 04:11:44;;;;;;;5.07;2.47;;;15.30;99.90;;;;;;5053045;28;20194;-45
2022/06/06 04:14:24;;;;;;;1.40;1.40;;;15.40;99.90;;;;;;5053437;28;20263;-45
2022/06/06 04:17:01;;;;;;;2.10;1.17;;;15.50;99.90;;;;;;5049493;28;20253;-44
2022/06/06 04:19:41;;;;;;;1.47;1.13;;;15.50;99.90;;;;;;5049671;28;20198;-45
2022/06/06 04:22:27;;;;;;;1.50;1.40;;;15.50;99.90;;;;;;5052808;28;20733;-45
2022/06/06 04:25:04;;;;;;;1.63;1.40;;;15.60;99.90;;;;;;5052973;28;20202;-44
2022/06/06 04:27:41;;;;;;;2.67;1.23;;;15.70;99.90;;;;;;5052711;28;20221;-44
2022/06/06 04:30:16;;;;;;;1.03;1.03;;;15.80;99.90;;;;;;5043353;28;20229;-44
2022/06/06 04:32:54;;;;;;;1.50;1.40;;;15.80;99.90;;;;;;5044627;28;20259;-45
2022/06/06 04:35:28;;;;;;;1.67;1.57;;;15.90;99.90;;;;;;5042825;28;20200;-45
2022/06/06 04:38:12;;;;;;;1.17;1.17;;;16.10;99.90;;;;;;5048849;28;20222;-45
2022/06/06 04:40:44;;;;;;;1.83;1.67;;;16.10;99.90;;;;;;5047728;28;20214;-45
2022/06/06 04:43:18;;;;;;;1.03;1.03;;;16.20;99.90;;;;;;5050003;28;20229;-45
2022/06/06 04:45:55;;;;;;;2.47;1.50;;;16.30;99.90;;;;;;5049354;28;20197;-45
2022/06/06 04:48:23;;;;;;;1.33;0.97;;;16.50;99.90;;;;;;5051053;28;20672;-45
2022/06/06 04:50:50;;;;;;;1.83;1.73;;;16.50;99.90;;;;;;5049960;28;20205;-45
2022/06/06 04:53:20;;;;;;;1.30;1.20;;;16.60;99.90;;;;;;5052279;28;20239;-45
2022/06/06 04:55:51;;;;;;;2.87;1.57;;;16.70;99.90;;;;;;5052580;28;20677;-44
2022/06/06 04:58:21;;;;;;;1.37;1.10;;;16.90;99.90;;;;;;5047146;28;20268;-45
2022/06/06 05:00:48;;;;;;;2.20;1.93;;;17.10;99.90;;;;;;5049618;28;20213;-45
2022/06/06 05:03:15;;;;;;;1.80;1.17;;;17.40;99.90;;;;;;5052512;28;20210;-45
2022/06/06 05:05:57;;;;;;;2.50;1.77;;;18.00;99.90;;;;;;5052369;28;20407;-45
2022/06/06 05:08:43;;;;;;;1.53;1.43;;;18.70;99.90;;;;;;5050949;28;20253;-45
2022/06/06 05:11:23;;;;;;;1.40;1.30;;;19.50;99.90;;;;;;5049560;28;20218;-45
2022/06/06 05:14:08;;;;;;;2.93;1.57;;;20.40;99.90;;;;;;5049790;28;20267;-45
2022/06/06 05:16:48;;;;;;;1.27;1.10;;;20.50;99.90;;;;;;5047480;28;20197;-45
2022/06/06 05:19:37;;;;;;;3.23;1.63;;;20.70;99.90;;;;;;5043191;28;20197;-45
2022/06/06 05:22:27;;;;;;;1.00;1.00;;;21.50;99.90;;;;;;5046484;28;20245;-45
2022/06/06 05:25:09;;;;;;;3.90;1.03;;;22.30;99.90;;;;;;5050198;28;20240;-45
2022/06/06 05:28:11;;;;;;;3.27;1.00;;;23.10;99.90;;;;;;5051329;28;20266;-45
2022/06/06 05:30:47;;;;;;;2.37;1.37;;;24.00;99.90;;;;;;5047732;28;20189;-45
2022/06/06 05:33:19;;;;;;;1.43;0.70;;;24.50;99.90;;;;;;5052024;28;20202;-45
2022/06/06 05:36:22;;;;;;;1.07;0.90;;;24.90;99.90;;;;;;5052132;28;20198;-45
2022/06/06 05:39:10;;;;;;;2.33;0.83;;;24.20;99.90;;;;;;5045076;28;20225;-45
2022/06/06 05:42:00;;;;;;;0.80;0.80;;;23.80;99.90;;;;;;5035936;28;20272;-46
2022/06/06 05:44:42;;;;;;;0.90;0.90;;;23.40;99.90;;;;;;5032098;28;20335;-45
2022/06/06 05:47:18;;;;;;;1.17;1.07;;;22.80;99.90;;;;;;5033341;28;20254;-46
2022/06/06 05:49:57;;;;;;;1.53;1.00;;;23.00;99.90;;;;;;5050955;28;20205;-46
2022/06/06 05:52:40;;;;;;;0.80;0.80;;;23.20;99.90;;;;;;5051626;28;20195;-46
2022/06/06 05:55:23;;;;;;;1.80;0.90;;;24.00;99.90;;;;;;5051779;28;20567;-46
2022/06/06 05:58:07;;;;;;;2.10;0.80;;;24.50;99.90;;;;;;5049718;28;20275;-45
2022/06/06 06:00:45;;;;;;;0.83;0.70;;;24.00;99.90;;;;;;5043980;28;20745;-46
2022/06/06 06:03:48;;;;;;;1.53;1.53;;;23.30;99.90;;;;;;5037949;28;20664;-45
2022/06/06 06:06:22;;;;;;;0.87;0.87;;;22.70;99.90;;;;;;5051747;28;20205;-45
2022/06/06 06:09:15;;;;;;;0.90;0.90;;;22.00;99.90;;;;;;5042603;28;20345;-45
2022/06/06 06:12:04;;;;;;;1.27;1.27;;;21.80;99.90;;;;;;5046341;28;20194;-45
2022/06/06 06:14:47;;;;;;;1.43;0.90;;;22.10;99.90;;;;;;5038677;28;21583;-46
2022/06/06 06:17:18;;;;;;;1.00;1.00;;;22.10;99.90;;;;;;5048233;28;20222;-45
2022/06/06 06:19:50;;;;;;;0.70;0.70;;;21.90;99.90;;;;;;5051246;28;20726;-46
2022/06/06 06:22:18;;;;;;;1.17;1.17;;;21.80;99.90;;;;;;5051137;28;20270;-46
2022/06/06 06:24:45;;;;;;;1.17;1.13;;;22.00;99.90;;;;;;5042758;28;20198;-45
2022/06/06 06:27:14;;;;;;;4.07;0.80;;;21.80;99.90;;;;;;5046802;28;20299;-45
2022/06/06 06:29:41;;;;;;;1.13;0.80;;;21.90;99.90;;;;;;5047479;28;20197;-45
2022/06/06 06:32:41;;;;;;;1.33;0.90;;;22.40;99.90;;;;;;5048058;28;20198;-45
2022/06/06 06:35:17;;;;;;;2.40;0.77;;;22.60;99.90;;;;;;5045180;28;20194;-46
2022/06/06 06:38:15;;;;;;;3.43;1.20;;;22.30;99.90;;;;;;5049261;28;20869;-45
2022/06/06 06:40:53;;;;;;;0.70;0.70;;;21.70;99.90;;;;;;5051145;28;20729;-46
2022/06/06 06:43:32;;;;;;;1.20;1.10;;;21.40;99.90;;;;;;5050930;28;20236;-46
2022/06/06 06:46:01;;;;;;;1.53;0.90;;;21.10;99.90;;;;;;5046852;28;20659;-46
2022/06/06 06:48:33;;;;;;;2.63;1.07;;;20.90;99.90;;;;;;5083545;22;20221;-50
2022/06/06 06:51:09;;;;;;;2.53;1.07;;;21.00;99.90;;;;;;5069907;28;20198;-50
2022/06/06 06:53:49;;;;;;;1.67;0.90;;;21.10;99.90;;;;;;5070466;28;20196;-50
2022/06/06 06:56:33;;;;;;;1.00;1.00;;;21.40;99.90;;;;;;5069418;28;20239;-51
2022/06/06 06:59:09;;;;;;;0.80;0.80;;;22.40;99.90;;;;;;5070848;28;20353;-51
2022/06/06 07:08:32;;;;;;;1.10;1.00;;;23.00;99.90;;;;;;5070206;28;20272;-51
2022/06/06 07:10:23;;;;;;;1.43;1.33;;;23.80;99.90;;;;;;5067809;28;20205;-50
2022/06/06 07:13:12;;;;;;;0.90;0.90;;;23.60;99.90;;;;;;5071594;28;20281;-50
2022/06/06 07:15:47;;;;;;;2.50;0.80;;;23.30;99.90;;;;;;5074115;28;20254;-51
2022/06/06 07:18:17;;;;;;;1.43;1.33;;;23.30;99.90;;;;;;5073971;28;20298;-51
2022/06/06 07:20:46;;;;;;;2.33;1.30;;;22.90;99.90;;;;;;5071328;28;20205;-51
2022/06/06 07:23:17;;;;;;;0.83;0.83;;;22.70;99.90;;;;;;5073018;28;20670;-51
2022/06/06 07:25:46;;;;;;;1.07;0.97;;;22.60;99.90;;;;;;5073293;28;20189;-50
2022/06/06 07:28:15;;;;;;;1.63;0.90;;;22.10;99.90;;;;;;5072377;28;20259;-50
2022/06/06 07:30:49;;;;;;;2.00;1.40;;;22.10;99.90;;;;;;5070054;28;20662;-51
2022/06/06 07:33:30;;;;;;;1.10;1.10;;;22.10;99.90;;;;;;5068540;28;20197;-51
2022/06/06 07:36:08;;;;;;;2.10;1.40;;;22.30;99.90;;;;;;5060306;28;20267;-51
2022/06/06 07:38:48;;;;;;;2.20;0.87;;;22.20;99.90;;;;;;5064900;28;20285;-51
2022/06/06 07:41:28;;;;;;;0.83;0.80;;;22.20;99.90;;;;;;5053341;28;20213;-50
2022/06/06 07:44:14;;;;;;;1.63;1.10;;;22.00;99.90;;;;;;5053667;28;20209;-50
2022/06/06 07:46:57;;;;;;;3.43;1.50;;;22.10;99.90;;;;;;5057347;28;20271;-51
2022/06/06 07:49:30;;;;;;;1.00;1.00;;;22.10;99.90;;;;;;5067104;28;20292;-51
2022/06/06 07:52:15;;;;;;;1.10;1.00;;;22.10;99.90;;;;;;5073522;28;20197;-51
2022/06/06 07:54:54;;;;;;;1.20;1.00;;;21.90;99.90;;;;;;5073567;28;20236;-51
2022/06/06 07:57:30;;;;;;;1.10;1.10;;;21.70;99.90;;;;;;5072383;28;20350;-51
2022/06/06 08:00:08;;;;;;;1.73;1.40;;;21.80;99.90;;;;;;5073299;28;20230;-50
2022/06/06 08:03:07;;;;;;;1.70;1.20;;;21.90;99.90;;;;;;5073465;28;20217;-51
2022/06/06 08:06:12;;;;;;;2.30;1.67;;;22.00;99.90;;;;;;5070511;28;20288;-51
2022/06/06 08:09:14;;;;;;;3.40;1.60;;;22.00;99.90;;;;;;5066293;28;20282;-51
2022/06/06 08:11:56;;;;;;;1.33;1.33;;;22.10;99.90;;;;;;5066099;28;20204;-52
2022/06/06 08:14:37;;;;;;;5.90;2.33;;;22.30;99.90;;;;;;5062346;28;20294;-51
2022/06/06 08:17:11;;;;;;;1.20;1.20;;;22.50;99.90;;;;;;5063407;28;20234;-51
2022/06/06 08:19:56;;;;;;;1.63;1.47;;;22.80;99.90;;;;;;5066511;28;20200;-51
2022/06/06 08:22:25;;;;;;;2.20;1.90;;;22.90;99.90;;;;;;5066314;28;20302;-51
2022/06/06 08:24:57;;;;;;;2.07;1.97;;;23.10;99.90;;;;;;5071982;28;20224;-51
2022/06/06 08:27:28;;;;;;;2.27;1.87;;;23.20;99.90;;;;;;5071925;28;20300;-51
2022/06/06 08:29:55;;;;;;;5.23;2.03;;;23.30;99.90;;;;;;5074542;28;20675;-52
2022/06/06 08:32:22;;;;;;;1.70;1.67;;;23.30;99.90;;;;;;5071390;28;20227;-51
2022/06/06 08:34:49;;;;;;;4.33;2.13;;;23.20;99.90;;;;;;5070226;28;20611;-51
2022/06/06 08:37:54;;;;;;;1.63;1.53;;;23.10;99.90;;;;;;5071078;28;20270;-51
2022/06/06 08:40:55;;;;;;;2.67;2.50;;;23.10;99.90;;;;;;5062941;28;20246;-50
2022/06/06 08:43:49;;;;;;;1.90;1.80;;;22.80;99.90;;;;;;5069818;28;20213;-50
2022/06/06 08:46:21;;;;;;;1.90;1.80;;;22.60;99.90;;;;;;5070747;28;20255;-50
2022/06/06 08:50:44;;;;;;;2.53;2.23;;;22.80;99.90;;;;;;5069229;28;20273;-51
2022/06/06 08:52:12;;;;;;;2.40;2.23;;;23.30;99.90;;;;;;5071234;28;20573;-49
2022/06/06 08:55:04;;;;;;;3.10;2.37;;;23.60;99.90;;;;;;5071646;28;20215;-50
2022/06/06 08:57:47;;;;;;;2.47;2.33;;;23.90;99.90;;;;;;5070928;28;20213;-51
2022/06/06 09:00:22;;;;;;;5.53;2.70;;;25.00;99.90;;;;;;5071073;28;20251;-51
2022/06/06 09:03:24;;;;;;;2.53;2.43;;;26.20;99.90;;;;;;5068655;28;20279;-51
2022/06/06 09:06:27;;;;;;;2.72;2.53;;;27.20;99.90;;;;;;5064536;28;20444;-51
2022/06/06 09:09:24;;;;;;;3.30;3.10;;;27.90;99.90;;;;;;5024455;28;20221;-51
2022/06/06 09:12:22;;;;;;;3.27;3.17;;;28.50;99.90;;;;;;5067696;28;20197;-51
2022/06/06 09:15:23;;;;;;;4.18;2.78;;;28.10;99.90;;;;;;5067639;28;20247;-52
2022/06/06 09:18:19;;;;;;;2.83;2.72;;;28.10;99.90;;;;;;5067890;28;20310;-52
2022/06/06 09:21:06;;;;;;;2.28;2.22;;;28.20;99.90;;;;;;5070097;28;20194;-52
2022/06/06 09:24:12;;;;;;;2.83;2.63;;;28.50;99.90;;;;;;5062693;28;20586;-52
2022/06/06 09:26:48;;;;;;;2.45;2.35;;;29.20;99.90;;;;;;5068256;28;20666;-52
2022/06/06 09:29:41;;;;;;;3.70;3.40;;;29.50;99.90;;;;;;5070053;28;20228;-52
2022/06/06 09:32:40;;;;;;;3.22;2.97;;;29.00;99.90;;;;;;5051638;28;20197;-52
2022/06/06 09:35:38;;;;;;;2.15;2.05;;;29.80;99.90;;;;;;5063764;28;20266;-52
2022/06/06 09:38:14;;;;;;;2.47;2.30;;;30.20;99.90;;;;;;5068636;28;20227;-52
2022/06/06 09:41:00;;;;;;;2.60;2.42;;;29.80;99.90;;;;;;5068379;28;20936;-51
2022/06/06 09:43:34;;;;;;;2.88;2.78;;;28.60;99.90;;;;;;5070593;28;20267;-52
2022/06/06 09:46:44;;;;;;;1.95;1.85;;;28.30;99.90;;;;;;5071180;28;20204;-52
2022/06/06 09:49:34;;;;;;;2.72;2.53;;;29.00;99.90;;;;;;5069111;28;20232;-50
2022/06/06 09:52:55;;;;;;;2.97;2.40;;;28.60;99.90;;;;;;5069441;28;20247;-51
2022/06/06 09:59:15;;;;;;;2.58;2.38;;;28.10;99.90;;;;;;5071531;28;20743;-51
2022/06/06 10:02:23;;;;;;;2.08;1.98;;;28.30;99.90;;;;;;5068462;28;20296;-51
2022/06/06 10:05:31;;;;;;;2.17;2.10;;;28.00;99.90;;;;;;5013996;28;20206;-52
2022/06/06 10:08:34;;;;;;;2.22;2.13;;;28.50;99.90;;;;;;5070790;28;20290;-52
2022/06/06 10:11:31;;;;;;;3.35;2.03;;;28.40;99.90;;;;;;5068612;28;20208;-52
2022/06/06 10:14:18;;;;;;;2.40;2.20;;;28.20;99.90;;;;;;5063027;28;20274;-52
2022/06/06 10:17:02;;;;;;;2.17;2.08;;;27.80;99.90;;;;;;5067360;28;20773;-52
2022/06/06 10:19:46;;;;;;;2.47;2.38;;;28.10;99.90;;;;;;5068742;28;20234;-52
2022/06/06 10:22:47;;;;;;;2.05;1.95;;;27.40;99.90;;;;;;5062422;28;20248;-53
2022/06/06 10:25:42;;;;;;;2.58;2.47;;;27.30;99.90;;;;;;5065939;28;20209;-51
2022/06/06 10:28:37;;;;;;;2.23;1.90;;;27.30;99.90;;;;;;5065322;28;20710;-51
2022/06/06 10:31:15;;;;;;;2.83;1.80;;;27.50;99.90;;;;;;5068072;28;20296;-52
2022/06/06 10:33:59;;;;;;;3.42;2.33;;;28.00;99.90;;;;;;5069333;28;20263;-51
2022/06/06 10:37:00;;;;;;;2.17;2.03;;;28.50;99.90;;;;;;5072710;28;20568;-52
2022/06/06 10:39:49;;;;;;;1.88;1.77;;;27.70;99.90;;;;;;5036350;28;20208;-51
2022/06/06 10:42:35;;;;;;;2.00;1.90;;;28.30;99.90;;;;;;5067991;28;20315;-51
2022/06/06 10:45:21;;;;;;;1.73;1.73;;;28.00;99.90;;;;;;5073783;28;20666;-51
2022/06/06 10:48:29;;;;;;;1.95;1.85;;;28.30;99.90;;;;;;5068451;28;20710;-51
2022/06/06 10:51:43;;;;;;;1.90;1.80;;;28.50;99.90;;;;;;5070426;28;20201;-51
2022/06/06 10:54:39;;;;;;;1.77;1.67;;;27.80;99.90;;;;;;5074339;28;20296;-51
2022/06/06 10:57:46;;;;;;;2.00;1.80;;;27.60;99.90;;;;;;5045771;28;20236;-51
2022/06/06 11:00:22;;;;;;;2.10;2.00;;;27.00;99.90;;;;;;5064453;28;20208;-51
2022/06/06 11:03:26;;;;;;;1.97;1.97;;;26.40;99.90;;;;;;5073031;28;20721;-51
2022/06/06 11:06:25;;;;;;;1.98;1.88;;;26.10;99.90;;;;;;5074229;28;20204;-52
2022/06/06 11:09:08;;;;;;;2.60;1.70;;;26.20;99.90;;;;;;5071341;28;20767;-51
2022/06/06 11:12:10;;;;;;;2.30;2.20;;;26.20;99.90;;;;;;5073655;28;20288;-52
2022/06/06 11:14:38;;;;;;;2.17;2.07;;;25.70;99.90;;;;;;5073162;28;20236;-52
2022/06/06 11:17:35;;;;;;;1.87;1.77;;;25.50;99.90;;;;;;5071564;28;20200;-52
2022/06/06 11:20:42;;;;;;;2.53;1.87;;;25.10;99.90;;;;;;5073680;28;20270;-52
2022/06/06 11:23:17;;;;;;;2.60;2.40;;;24.80;99.90;;;;;;5073750;28;20228;-52
2022/06/06 11:25:58;;;;;;;1.97;1.87;;;24.70;99.90;;;;;;5073871;28;20211;-52
2022/06/06 11:28:46;;;;;;;2.60;2.50;;;24.80;99.90;;;;;;5070211;28;20217;-51
2022/06/06 11:31:36;;;;;;;2.17;2.07;;;24.60;99.90;;;;;;5069571;28;20610;-51
2022/06/06 11:34:32;;;;;;;1.93;1.83;;;24.60;99.90;;;;;;5073846;28;20201;-51
2022/06/06 11:37:31;;;;;;;3.53;2.07;;;24.70;99.90;;;;;;5050578;28;20315;-51
2022/06/06 11:40:30;;;;;;;3.17;2.97;;;24.40;99.90;;;;;;5071008;28;20201;-50
2022/06/06 11:43:38;;;;;;;2.53;2.30;;;24.70;99.90;;;;;;5071642;28;20306;-51
2022/06/06 11:46:28;;;;;;;2.60;2.40;;;24.50;99.90;;;;;;5070789;28;20204;-52
2022/06/06 11:49:37;;;;;;;2.47;2.37;;;24.90;99.90;;;;;;5068966;28;20675;-52
2022/06/06 11:52:33;;;;;;;3.53;2.37;;;24.90;99.90;;;;;;5071333;28;20201;-52
2022/06/06 11:55:34;;;;;;;2.20;2.00;;;25.00;99.90;;;;;;5067875;28;20198;-52
2022/06/06 11:58:30;;;;;;;1.50;1.50;;;25.00;99.90;;;;;;5067635;28;20229;-51
2022/06/06 12:01:23;;;;;;;2.03;1.93;;;24.60;99.90;;;;;;5042949;28;20205;-52
2022/06/06 12:04:30;;;;;;;1.83;1.83;;;24.60;99.90;;;;;;5071928;28;20308;-52
2022/06/06 12:07:51;;;;;;;2.00;1.80;;;24.40;99.90;;;;;;5031148;28;20200;-51
2022/06/06 12:10:23;;;;;;;1.87;1.87;;;24.60;99.90;;;;;;5025408;28;20669;-51
2022/06/06 12:13:08;;;;;;;2.60;2.50;;;24.60;99.90;;;;;;5028710;28;20205;-51
2022/06/06 12:16:13;;;;;;;2.43;2.30;;;24.70;99.90;;;;;;5054457;28;20208;-50
2022/06/06 12:19:20;;;;;;;1.83;1.83;;;24.60;99.90;;;;;;5070734;28;20307;-51
2022/06/06 12:21:55;;;;;;;1.87;1.73;;;24.30;99.90;;;;;;5014163;28;20267;-50
2022/06/06 12:25:01;;;;;;;1.77;1.77;;;24.20;99.90;;;;;;5060672;28;20228;-50
2022/06/06 12:27:46;;;;;;;2.40;2.20;;;24.50;99.90;;;;;;5059627;28;20224;-50
2022/06/06 12:30:38;;;;;;;2.50;2.30;;;24.50;99.90;;;;;;5066169;28;20197;-50
2022/06/06 12:33:14;;;;;;;2.87;1.90;;;24.20;99.90;;;;;;5060832;28;20225;-50
2022/06/06 12:35:48;;;;;;;3.23;2.53;;;24.00;99.90;;;;;;5063565;28;20339;-50
2022/06/06 12:38:32;;;;;;;2.77;2.17;;;24.10;99.90;;;;;;5065863;28;20639;-50
2022/06/06 12:41:16;;;;;;;2.40;2.00;;;24.20;99.90;;;;;;5068103;28;20648;-50
2022/06/06 12:44:04;;;;;;;2.07;1.97;;;24.30;99.90;;;;;;5065038;28;20221;-51
2022/06/06 12:46:52;;;;;;;2.30;2.27;;;24.40;99.90;;;;;;5068430;28;20236;-50
2022/06/06 12:49:40;;;;;;;3.57;3.20;;;24.30;99.90;;;;;;5065394;28;20193;-50
2022/06/06 12:52:39;;;;;;;2.10;2.00;;;24.40;99.90;;;;;;5071109;28;20292;-50
2022/06/06 12:55:37;;;;;;;2.73;2.53;;;24.40;99.90;;;;;;5070808;28;20762;-50
2022/06/06 12:58:20;;;;;;;2.50;2.30;;;24.70;99.90;;;;;;5063904;28;20232;-50
2022/06/06 13:04:02;;;;;;;2.57;2.40;;;24.70;99.90;;;;;;5067664;28;20228;-50
2022/06/06 13:06:43;;;;;;;4.20;2.50;;;24.60;99.90;;;;;;5071929;28;20289;-50
2022/06/06 13:09:32;;;;;;;2.67;2.40;;;24.40;99.90;;;;;;5068594;28;20575;-51
2022/06/06 13:12:11;;;;;;;2.07;2.07;;;24.40;99.90;;;;;;5069705;28;20209;-50
2022/06/06 13:15:17;;;;;;;2.70;2.50;;;24.40;99.90;;;;;;5067924;28;20292;-50
2022/06/06 13:17:58;;;;;;;2.37;2.27;;;24.60;99.90;;;;;;5064205;28;20248;-50
2022/06/06 13:20:39;;;;;;;2.80;2.60;;;24.40;99.90;;;;;;5071212;28;20201;-50
2022/06/06 13:23:24;;;;;;;3.17;3.00;;;24.30;99.90;;;;;;5065336;28;20227;-50
2022/06/06 13:26:02;;;;;;;1.93;1.93;;;24.30;99.90;;;;;;5067124;28;20300;-50
2022/06/06 13:28:32;;;;;;;2.77;2.63;;;24.40;99.90;;;;;;5070055;28;20213;-50
2022/06/06 13:31:13;;;;;;;4.27;2.67;;;24.50;99.90;;;;;;5069614;28;20258;-49
2022/06/06 13:33:56;;;;;;;3.27;2.57;;;24.50;99.90;;;;;;5068631;28;20649;-50
2022/06/06 13:36:46;;;;;;;3.03;2.60;;;24.70;99.90;;;;;;5067401;28;20201;-50
2022/06/06 13:39:26;;;;;;;2.60;2.40;;;24.70;99.90;;;;;;5070043;28;20189;-50
2022/06/06 13:42:04;;;;;;;1.80;1.80;;;24.90;99.90;;;;;;5070105;28;20224;-50
2022/06/06 13:45:02;;;;;;;2.80;2.70;;;24.90;99.90;;;;;;5069591;28;20213;-51
2022/06/06 13:48:00;;;;;;;3.00;2.30;;;24.70;99.90;;;;;;5068815;28;20248;-50
2022/06/06 13:50:32;;;;;;;2.10;2.00;;;24.70;99.90;;;;;;5070599;28;20197;-51
2022/06/06 13:53:29;;;;;;;3.20;2.90;;;24.70;99.90;;;;;;5068450;28;20266;-50
2022/06/06 13:56:13;;;;;;;2.80;2.60;;;24.70;99.90;;;;;;5068028;28;20193;-50
2022/06/06 13:58:55;;;;;;;2.50;2.40;;;24.70;99.90;;;;;;5069789;28;20258;-51
2022/06/06 14:01:41;;;;;;;2.27;2.17;;;24.30;99.90;;;;;;5069612;28;20197;-50
2022/06/06 14:04:30;;;;;;;2.90;2.23;;;24.30;99.90;;;;;;5067013;28;20271;-50
2022/06/06 14:07:31;;;;;;;2.80;2.60;;;24.30;99.90;;;;;;5068961;28;20201;-50
2022/06/06 14:10:01;;;;;;;3.17;2.97;;;24.10;99.90;;;;;;5067262;28;20233;-49
2022/06/06 14:12:36;;;;;;;2.90;2.80;;;23.90;99.90;;;;;;5068902;28;20197;-50
2022/06/06 14:15:08;;;;;;;3.20;2.60;;;23.80;99.90;;;;;;5069072;28;20193;-50
2022/06/06 14:17:38;;;;;;;20.07;18.10;;;23.90;99.90;;;;;;5066309;28;20213;-50
2022/06/06 14:20:17;;;;;;;15.03;13.70;;;24.00;99.90;;;;;;5069551;28;20266;-49
2022/06/06 14:22:46;;;;;;;5.83;5.33;;;24.10;99.90;;;;;;5064778;28;20192;-49